Eastman, GA

10:08 AM EST on January 20, 2017 (GMT -0500)
Heart Of Georgia Regional

Weather History for KEZM - March, 2014

Change the Weather History Date:

Saturday, March 29, 2014

  Actual Average Record
Temperature  
Mean Temperature 69 °F -  
Max Temperature 80 °F 74 °F 80 °F (2014)
Min Temperature 58 °F 50 °F 29 °F (2015)
Cooling Degree Days 4    
Growing Degree Days 19 (Base 50)    
Moisture  
Dew Point 61 °F    
Average Humidity 81    
Maximum Humidity 100    
Minimum Humidity 50    
Precipitation  
Precipitation 0.00 in - - ()
Sea Level Pressure  
Sea Level Pressure 29.91 in    
Wind  
Wind Speed 7 mph (WSW)    
Max Wind Speed 18 mph    
Max Gust Speed 31 mph    
Visibility 8 miles    
Events Fog , Rain    
Averages and records for this station are not official NWS values.
T = Trace of Precipitation, MM = Missing Value Source: NWS Daily Summary

Daily Weather History Graph

Daily Weather History Graph

Search for Another Location

Airport or City:

Trip Planner

Search our weather history database for the weather conditions in past years. The results will help you decide how hot, cold, wet, or windy it might be!

Date:

Astronomy

Mar. 29, 2014 Rise Set
Actual Time 7:24 AM EDT 7:50 PM EDT
Civil Twilight 7:00 AM EDT 8:14 PM EDT
Nautical Twilight 6:31 AM EDT 8:43 PM EDT
Astronomical Twilight 6:02 AM EDT 9:13 PM EDT
Moon 6:28 AM EDT (3/29) 6:56 PM EDT (3/29)
Length of Visible Light 13h 14m
Length of Day
12h 25m
Waning Crescent, 2% of the Moon is Illuminated
Mar 29
Waning Crescent
Mar 30
New
Apr 7
First Quarter
Apr 15
Full
Apr 22
Last Quarter

Hourly Weather History & Observations

Time (EDT) Temp. Heat Index Dew Point Humidity Pressure Visibility Wind Dir Wind Speed Gust Speed Precip Events Conditions
12:15 AM 66.2 °F - 66.2 °F 100% 30.02 in 10.0 mi ESE 6.9 mph - N/A   Overcast
12:35 AM 66.2 °F - 66.2 °F 100% 30.02 in 10.0 mi SE 4.6 mph - N/A   Overcast
12:55 AM 66.2 °F - 66.2 °F 100% 30.02 in 10.0 mi SE 3.5 mph - N/A   Overcast
1:15 AM 66.2 °F - 66.2 °F 100% 30.03 in 10.0 mi SSE 3.5 mph - N/A   Overcast
1:35 AM 66.2 °F - 66.2 °F 100% 30.02 in 10.0 mi SE 3.5 mph - N/A   Overcast
2:15 AM 66.0 °F - 66.0 °F 100% 30.02 in 5.0 mi SE 4.6 mph - N/A Rain Heavy Rain
2:35 AM 65.7 °F - 65.7 °F 100% 29.99 in 7.0 mi SE 6.9 mph - N/A   Overcast
2:55 AM 65.5 °F - 65.5 °F 100% 29.97 in 5.0 mi SE 6.9 mph - N/A   Overcast
3:15 AM 65.5 °F - 65.5 °F 100% 29.96 in 7.0 mi SE 6.9 mph - N/A   Overcast
3:35 AM 65.5 °F - 65.5 °F 100% 29.95 in 7.0 mi SE 4.6 mph - N/A   Overcast
3:55 AM 65.3 °F - 65.3 °F 100% 29.94 in 7.0 mi ESE 5.8 mph - N/A   Overcast
4:15 AM 65.5 °F - 65.5 °F 100% 29.92 in 7.0 mi SE 6.9 mph - N/A   Overcast
4:35 AM 65.5 °F - 65.5 °F 100% 29.91 in 7.0 mi SE 3.5 mph - N/A   Overcast
4:55 AM 65.3 °F - 65.3 °F 100% 29.90 in 7.0 mi Calm Calm - N/A   Overcast
5:15 AM 64.4 °F - 64.4 °F 100% 29.91 in 3.0 mi ESE 3.5 mph - N/A   Mostly Cloudy
5:35 AM 63.0 °F - 63.0 °F 100% 29.92 in 0.2 mi Calm Calm - N/A Fog Fog
5:55 AM 62.8 °F - 62.8 °F 100% 29.93 in 0.8 mi Calm Calm - N/A   Mostly Cloudy
6:15 AM 62.1 °F - 62.1 °F 100% 29.95 in 0.5 mi Calm Calm - N/A Fog Fog
6:35 AM 62.8 °F - 62.8 °F 100% 29.96 in 2.0 mi Calm Calm - N/A   Clear
6:55 AM 61.7 °F - 61.7 °F 100% 29.97 in 0.2 mi Calm Calm - N/A Fog Fog
7:15 AM 62.8 °F - 62.8 °F 100% 29.97 in 1.5 mi Calm Calm - N/A   Scattered Clouds
7:35 AM 62.6 °F - 62.6 °F 100% 30.00 in 1.5 mi WSW 3.5 mph - N/A   Overcast
7:55 AM 64.4 °F - 64.4 °F 100% 29.99 in 10.0 mi SW 4.6 mph - N/A   Overcast
8:15 AM 65.5 °F - 65.5 °F 100% 30.01 in 10.0 mi WSW 6.9 mph - N/A   Overcast
8:35 AM 65.5 °F - 65.3 °F 99% 29.99 in 10.0 mi WSW 4.6 mph - N/A   Mostly Cloudy
8:55 AM 65.5 °F - 64.8 °F 98% 29.97 in 10.0 mi West 4.6 mph - N/A   Scattered Clouds
9:15 AM 65.5 °F - 64.4 °F 96% 29.96 in 10.0 mi WSW 3.5 mph - N/A Rain Light Rain
9:35 AM 65.3 °F - 64.6 °F 98% 29.94 in 10.0 mi South 4.6 mph - N/A Rain Light Rain
9:55 AM 66.2 °F - 65.3 °F 97% 29.91 in 10.0 mi SSE 4.6 mph - N/A Rain Light Rain
10:15 AM 66.9 °F - 66.0 °F 97% 29.91 in 10.0 mi South 6.9 mph - N/A   Mostly Cloudy
10:35 AM 68.0 °F - 66.2 °F 94% 29.89 in 10.0 mi South 5.8 mph - N/A   Scattered Clouds
10:55 AM 69.3 °F - 65.8 °F 89% 29.87 in 10.0 mi South 5.8 mph - N/A   Clear
11:15 AM 70.9 °F - 65.8 °F 84% 29.87 in 10.0 mi South 5.8 mph - N/A   Clear
11:35 AM 72.0 °F - 64.6 °F 77% 29.86 in 10.0 mi SSW 5.8 mph - N/A   Clear
11:55 AM 74.8 °F - 64.0 °F 69% 29.86 in 10.0 mi SSW 4.6 mph - N/A   Clear
12:15 PM 75.7 °F - 63.1 °F 65% 29.86 in 10.0 mi SW 6.9 mph - N/A   Clear
12:35 PM 78.1 °F - 61.5 °F 57% 29.86 in 10.0 mi WSW 13.8 mph 18.4 mph N/A   Clear
12:55 PM 78.1 °F - 59.7 °F 53% 29.86 in 10.0 mi SW 12.7 mph 19.6 mph N/A   Clear
1:15 PM 78.3 °F - 60.3 °F 54% 29.86 in 10.0 mi WSW 15.0 mph 20.7 mph N/A   Scattered Clouds
1:35 PM 79.5 °F - 60.8 °F 53% 29.85 in 10.0 mi West 12.7 mph 20.7 mph N/A   Scattered Clouds
1:55 PM 79.5 °F - 60.6 °F 52% 29.84 in 10.0 mi WSW 11.5 mph 19.6 mph N/A   Scattered Clouds
2:15 PM 79.2 °F - 59.2 °F 50% 29.84 in 10.0 mi SW 16.1 mph 29.9 mph N/A   Scattered Clouds
2:35 PM 80.8 °F 81.6 °F 61.0 °F 51% 29.83 in 10.0 mi WSW 17.3 mph 21.9 mph N/A   Mostly Cloudy
2:55 PM 80.4 °F 81.3 °F 61.0 °F 51% 29.82 in 10.0 mi West 17.3 mph 24.2 mph N/A   Mostly Cloudy
3:15 PM 79.9 °F - 60.3 °F 51% 29.82 in 10.0 mi West 17.3 mph 26.5 mph N/A   Overcast
3:35 PM 78.4 °F - 61.3 °F 56% 29.82 in 10.0 mi West 17.3 mph 24.2 mph N/A   Mostly Cloudy
3:55 PM 78.6 °F - 60.3 °F 53% 29.82 in 10.0 mi West 16.1 mph 31.1 mph N/A   Scattered Clouds
4:15 PM 77.4 °F - 58.3 °F 52% 29.82 in 10.0 mi West 17.3 mph 28.8 mph N/A   Scattered Clouds
4:35 PM 75.7 °F - 59.0 °F 56% 29.83 in 10.0 mi West 18.4 mph 29.9 mph N/A   Scattered Clouds
4:55 PM 74.7 °F - 59.4 °F 59% 29.84 in 10.0 mi WNW 16.1 mph 28.8 mph N/A   Clear
5:15 PM 73.6 °F - 59.2 °F 61% 29.84 in 10.0 mi West 15.0 mph 24.2 mph N/A   Mostly Cloudy
5:35 PM 74.1 °F - 59.4 °F 60% 29.84 in 10.0 mi West 12.7 mph 25.3 mph N/A   Scattered Clouds
5:55 PM 74.5 °F - 59.5 °F 60% 29.85 in 10.0 mi West 13.8 mph 20.7 mph N/A   Scattered Clouds
6:15 PM 73.0 °F - 59.0 °F 61% 29.85 in 10.0 mi West 12.7 mph 21.9 mph N/A   Scattered Clouds
6:35 PM 72.5 °F - 59.0 °F 62% 29.85 in 10.0 mi West 10.4 mph 18.4 mph N/A   Scattered Clouds
6:55 PM 73.0 °F - 59.0 °F 61% 29.85 in 10.0 mi West 11.5 mph 18.4 mph N/A   Scattered Clouds
7:15 PM 71.6 °F - 59.2 °F 65% 29.86 in 10.0 mi West 10.4 mph 17.3 mph N/A   Scattered Clouds
7:35 PM 71.1 °F - 59.2 °F 66% 29.86 in 10.0 mi West 12.7 mph 17.3 mph N/A   Overcast
7:55 PM 65.5 °F - 63.1 °F 92% 29.89 in 5.0 mi West 9.2 mph 18.4 mph N/A Rain Rain
8:15 PM 64.6 °F - 63.5 °F 96% 29.89 in 10.0 mi West 9.2 mph - N/A   Overcast
8:35 PM 64.4 °F - 63.5 °F 97% 29.89 in 10.0 mi West 5.8 mph - N/A   Overcast
8:55 PM 64.2 °F - 62.8 °F 95% 29.91 in 10.0 mi West 10.4 mph - N/A   Mostly Cloudy
9:15 PM 63.9 °F - 60.4 °F 89% 29.92 in 10.0 mi WNW 11.5 mph 18.4 mph N/A   Overcast
9:35 PM 62.8 °F - 55.8 °F 78% 29.93 in 10.0 mi WNW 11.5 mph 18.4 mph N/A   Mostly Cloudy
9:55 PM 61.7 °F - 53.2 °F 74% 29.94 in 10.0 mi NW 9.2 mph - N/A   Scattered Clouds
10:15 PM 61.2 °F - 51.4 °F 70% 29.95 in 10.0 mi WNW 9.2 mph 16.1 mph N/A   Clear
10:35 PM 60.3 °F - 50.5 °F 70% 29.96 in 10.0 mi WNW 8.1 mph - N/A   Clear
10:55 PM 59.5 °F - 49.8 °F 70% 29.97 in 10.0 mi WNW 12.7 mph 19.6 mph N/A   Clear
11:15 PM 59.5 °F - 47.5 °F 64% 29.97 in 10.0 mi NW 11.5 mph 20.7 mph N/A   Clear
11:35 PM 58.8 °F - 47.3 °F 66% 29.98 in 10.0 mi NW 10.4 mph 20.7 mph N/A   Clear
11:55 PM 58.1 °F - 46.8 °F 66% 29.99 in 10.0 mi NW 12.7 mph 23.0 mph N/A   Clear